sensor_id;sensor_type;location;lat;lon;timestamp;P1;durP1;ratioP1;P2;durP2;ratioP2
7501;SDS011;3792;47.740;7.606;2022-07-29T00:00:48;4.10;;;3.73;;
7501;SDS011;3792;47.740;7.606;2022-07-29T00:03:15;7.03;;;3.73;;
7501;SDS011;3792;47.740;7.606;2022-07-29T00:05:42;3.90;;;3.53;;
7501;SDS011;3792;47.740;7.606;2022-07-29T00:08:10;3.63;;;3.40;;
7501;SDS011;3792;47.740;7.606;2022-07-29T00:10:37;4.67;;;3.63;;
7501;SDS011;3792;47.740;7.606;2022-07-29T00:13:05;4.87;;;3.90;;
7501;SDS011;3792;47.740;7.606;2022-07-29T00:15:32;4.07;;;3.60;;
7501;SDS011;3792;47.740;7.606;2022-07-29T00:17:59;4.73;;;3.80;;
7501;SDS011;3792;47.740;7.606;2022-07-29T00:20:26;6.93;;;4.17;;
7501;SDS011;3792;47.740;7.606;2022-07-29T00:22:53;5.33;;;4.20;;
7501;SDS011;3792;47.740;7.606;2022-07-29T00:25:22;5.20;;;4.40;;
7501;SDS011;3792;47.740;7.606;2022-07-29T00:27:49;4.03;;;3.67;;
7501;SDS011;3792;47.740;7.606;2022-07-29T00:30:16;4.00;;;3.67;;
7501;SDS011;3792;47.740;7.606;2022-07-29T00:32:43;6.93;;;4.17;;
7501;SDS011;3792;47.740;7.606;2022-07-29T00:35:10;4.40;;;4.10;;
7501;SDS011;3792;47.740;7.606;2022-07-29T00:37:55;6.27;;;3.53;;
7501;SDS011;3792;47.740;7.606;2022-07-29T00:40:23;5.43;;;3.67;;
7501;SDS011;3792;47.740;7.606;2022-07-29T00:42:51;3.80;;;3.53;;
7501;SDS011;3792;47.740;7.606;2022-07-29T00:45:18;6.53;;;3.93;;
7501;SDS011;3792;47.740;7.606;2022-07-29T00:47:47;4.40;;;4.00;;
7501;SDS011;3792;47.740;7.606;2022-07-29T00:50:14;6.07;;;4.10;;
7501;SDS011;3792;47.740;7.606;2022-07-29T00:52:41;4.43;;;3.63;;
7501;SDS011;3792;47.740;7.606;2022-07-29T00:55:10;3.90;;;3.50;;
7501;SDS011;3792;47.740;7.606;2022-07-29T00:57:39;3.97;;;3.57;;
7501;SDS011;3792;47.740;7.606;2022-07-29T01:00:08;4.90;;;3.83;;
7501;SDS011;3792;47.740;7.606;2022-07-29T01:02:37;3.63;;;3.33;;
7501;SDS011;3792;47.740;7.606;2022-07-29T01:05:05;5.10;;;3.53;;
7501;SDS011;3792;47.740;7.606;2022-07-29T01:07:33;3.87;;;3.57;;
7501;SDS011;3792;47.740;7.606;2022-07-29T01:10:02;4.43;;;3.60;;
7501;SDS011;3792;47.740;7.606;2022-07-29T01:12:30;3.77;;;3.33;;
7501;SDS011;3792;47.740;7.606;2022-07-29T01:15:02;4.73;;;3.47;;
7501;SDS011;3792;47.740;7.606;2022-07-29T01:17:32;6.07;;;3.50;;
7501;SDS011;3792;47.740;7.606;2022-07-29T01:20:09;3.40;;;3.10;;
7501;SDS011;3792;47.740;7.606;2022-07-29T01:22:49;3.77;;;3.47;;
7501;SDS011;3792;47.740;7.606;2022-07-29T01:25:36;3.93;;;3.63;;
7501;SDS011;3792;47.740;7.606;2022-07-29T01:28:17;4.97;;;3.73;;
7501;SDS011;3792;47.740;7.606;2022-07-29T01:31:06;4.03;;;3.67;;
7501;SDS011;3792;47.740;7.606;2022-07-29T01:33:38;3.77;;;3.47;;
7501;SDS011;3792;47.740;7.606;2022-07-29T01:36:16;3.80;;;3.40;;
7501;SDS011;3792;47.740;7.606;2022-07-29T01:38:49;3.70;;;3.40;;
7501;SDS011;3792;47.740;7.606;2022-07-29T01:41:22;3.50;;;3.30;;
7501;SDS011;3792;47.740;7.606;2022-07-29T01:43:53;3.43;;;3.23;;
7501;SDS011;3792;47.740;7.606;2022-07-29T01:46:31;3.87;;;3.60;;
7501;SDS011;3792;47.740;7.606;2022-07-29T01:49:02;6.47;;;3.00;;
7501;SDS011;3792;47.740;7.606;2022-07-29T01:51:46;4.83;;;3.70;;
7501;SDS011;3792;47.740;7.606;2022-07-29T01:54:18;3.93;;;3.23;;
7501;SDS011;3792;47.740;7.606;2022-07-29T01:56:51;3.47;;;3.13;;
7501;SDS011;3792;47.740;7.606;2022-07-29T01:59:23;4.57;;;3.33;;
7501;SDS011;3792;47.740;7.606;2022-07-29T02:01:52;5.03;;;3.00;;
7501;SDS011;3792;47.740;7.606;2022-07-29T02:04:20;4.37;;;3.00;;
7501;SDS011;3792;47.740;7.606;2022-07-29T02:06:49;3.40;;;3.13;;
7501;SDS011;3792;47.740;7.606;2022-07-29T02:09:18;5.40;;;3.40;;
7501;SDS011;3792;47.740;7.606;2022-07-29T02:11:49;3.83;;;3.43;;
7501;SDS011;3792;47.740;7.606;2022-07-29T02:14:21;3.77;;;3.37;;
7501;SDS011;3792;47.740;7.606;2022-07-29T02:16:52;3.50;;;3.20;;
7501;SDS011;3792;47.740;7.606;2022-07-29T02:19:23;3.60;;;3.30;;
7501;SDS011;3792;47.740;7.606;2022-07-29T02:21:54;4.13;;;3.73;;
7501;SDS011;3792;47.740;7.606;2022-07-29T02:24:24;4.47;;;3.67;;
7501;SDS011;3792;47.740;7.606;2022-07-29T02:26:53;4.47;;;3.40;;
7501;SDS011;3792;47.740;7.606;2022-07-29T02:29:25;4.77;;;3.93;;
7501;SDS011;3792;47.740;7.606;2022-07-29T02:31:54;3.87;;;3.57;;
7501;SDS011;3792;47.740;7.606;2022-07-29T02:34:23;4.40;;;4.00;;
7501;SDS011;3792;47.740;7.606;2022-07-29T02:36:51;3.80;;;3.50;;
7501;SDS011;3792;47.740;7.606;2022-07-29T02:39:20;4.20;;;3.80;;
7501;SDS011;3792;47.740;7.606;2022-07-29T02:41:50;5.73;;;3.47;;
7501;SDS011;3792;47.740;7.606;2022-07-29T02:44:21;4.53;;;3.73;;
7501;SDS011;3792;47.740;7.606;2022-07-29T02:46:53;4.00;;;3.60;;
7501;SDS011;3792;47.740;7.606;2022-07-29T02:49:28;6.83;;;3.90;;
7501;SDS011;3792;47.740;7.606;2022-07-29T02:52:02;5.70;;;3.53;;
7501;SDS011;3792;47.740;7.606;2022-07-29T02:54:34;3.80;;;3.50;;
7501;SDS011;3792;47.740;7.606;2022-07-29T02:57:06;4.33;;;3.80;;
7501;SDS011;3792;47.740;7.606;2022-07-29T02:59:41;4.20;;;3.80;;
7501;SDS011;3792;47.740;7.606;2022-07-29T03:02:11;4.23;;;3.43;;
7501;SDS011;3792;47.740;7.606;2022-07-29T03:04:41;4.30;;;3.93;;
7501;SDS011;3792;47.740;7.606;2022-07-29T03:07:10;3.77;;;3.47;;
7501;SDS011;3792;47.740;7.606;2022-07-29T03:09:40;3.60;;;3.30;;
7501;SDS011;3792;47.740;7.606;2022-07-29T03:12:09;4.93;;;3.73;;
7501;SDS011;3792;47.740;7.606;2022-07-29T03:14:36;3.90;;;3.60;;
7501;SDS011;3792;47.740;7.606;2022-07-29T03:17:05;4.03;;;3.73;;
7501;SDS011;3792;47.740;7.606;2022-07-29T03:19:33;4.90;;;3.80;;
7501;SDS011;3792;47.740;7.606;2022-07-29T03:22:00;4.50;;;3.60;;
7501;SDS011;3792;47.740;7.606;2022-07-29T03:24:29;3.87;;;3.57;;
7501;SDS011;3792;47.740;7.606;2022-07-29T03:26:57;3.50;;;3.30;;
7501;SDS011;3792;47.740;7.606;2022-07-29T03:29:25;4.03;;;3.63;;
7501;SDS011;3792;47.740;7.606;2022-07-29T03:31:52;4.53;;;3.10;;
7501;SDS011;3792;47.740;7.606;2022-07-29T03:34:21;3.83;;;3.47;;
7501;SDS011;3792;47.740;7.606;2022-07-29T03:36:48;5.77;;;4.27;;
7501;SDS011;3792;47.740;7.606;2022-07-29T03:39:17;5.23;;;3.80;;
7501;SDS011;3792;47.740;7.606;2022-07-29T03:41:47;4.23;;;3.57;;
7501;SDS011;3792;47.740;7.606;2022-07-29T03:44:17;5.03;;;3.80;;
7501;SDS011;3792;47.740;7.606;2022-07-29T03:46:47;4.10;;;3.70;;
7501;SDS011;3792;47.740;7.606;2022-07-29T03:49:16;4.03;;;3.73;;
7501;SDS011;3792;47.740;7.606;2022-07-29T03:51:46;3.73;;;3.43;;
7501;SDS011;3792;47.740;7.606;2022-07-29T03:54:14;4.63;;;3.47;;
7501;SDS011;3792;47.740;7.606;2022-07-29T03:56:42;5.57;;;4.30;;
7501;SDS011;3792;47.740;7.606;2022-07-29T03:59:12;5.30;;;3.83;;
7501;SDS011;3792;47.740;7.606;2022-07-29T04:01:41;4.03;;;3.63;;
7501;SDS011;3792;47.740;7.606;2022-07-29T04:04:09;4.07;;;3.77;;
7501;SDS011;3792;47.740;7.606;2022-07-29T04:06:37;4.90;;;3.50;;
7501;SDS011;3792;47.740;7.606;2022-07-29T04:09:07;4.43;;;3.80;;
7501;SDS011;3792;47.740;7.606;2022-07-29T04:11:35;5.83;;;3.77;;
7501;SDS011;3792;47.740;7.606;2022-07-29T04:14:04;3.70;;;3.37;;
7501;SDS011;3792;47.740;7.606;2022-07-29T04:16:31;7.37;;;3.97;;
7501;SDS011;3792;47.740;7.606;2022-07-29T04:18:59;3.80;;;3.30;;
7501;SDS011;3792;47.740;7.606;2022-07-29T04:21:26;7.00;;;4.10;;
7501;SDS011;3792;47.740;7.606;2022-07-29T04:23:53;5.13;;;3.23;;
7501;SDS011;3792;47.740;7.606;2022-07-29T04:26:21;4.47;;;4.07;;
7501;SDS011;3792;47.740;7.606;2022-07-29T04:28:48;4.23;;;3.83;;
7501;SDS011;3792;47.740;7.606;2022-07-29T04:31:15;4.07;;;3.77;;
7501;SDS011;3792;47.740;7.606;2022-07-29T04:33:42;4.03;;;3.73;;
7501;SDS011;3792;47.740;7.606;2022-07-29T04:36:09;5.80;;;3.60;;
7501;SDS011;3792;47.740;7.606;2022-07-29T04:38:37;4.10;;;3.80;;
7501;SDS011;3792;47.740;7.606;2022-07-29T04:41:04;4.97;;;4.20;;
7501;SDS011;3792;47.740;7.606;2022-07-29T04:43:34;4.43;;;4.00;;
7501;SDS011;3792;47.740;7.606;2022-07-29T04:46:02;5.97;;;3.87;;
7501;SDS011;3792;47.740;7.606;2022-07-29T04:48:29;4.37;;;3.60;;
7501;SDS011;3792;47.740;7.606;2022-07-29T04:50:57;6.00;;;3.83;;
7501;SDS011;3792;47.740;7.606;2022-07-29T04:53:24;4.70;;;4.30;;
7501;SDS011;3792;47.740;7.606;2022-07-29T04:55:52;6.57;;;3.87;;
7501;SDS011;3792;47.740;7.606;2022-07-29T04:58:19;4.37;;;4.07;;
7501;SDS011;3792;47.740;7.606;2022-07-29T05:00:49;7.50;;;4.27;;
7501;SDS011;3792;47.740;7.606;2022-07-29T05:03:17;5.23;;;4.00;;
7501;SDS011;3792;47.740;7.606;2022-07-29T05:05:44;4.50;;;4.10;;
7501;SDS011;3792;47.740;7.606;2022-07-29T05:08:11;5.87;;;4.43;;
7501;SDS011;3792;47.740;7.606;2022-07-29T05:10:39;7.63;;;4.83;;
7501;SDS011;3792;47.740;7.606;2022-07-29T05:13:06;9.03;;;4.30;;
7501;SDS011;3792;47.740;7.606;2022-07-29T05:15:34;5.03;;;3.90;;
7501;SDS011;3792;47.740;7.606;2022-07-29T05:18:04;4.60;;;4.20;;
7501;SDS011;3792;47.740;7.606;2022-07-29T05:20:31;4.40;;;4.10;;
7501;SDS011;3792;47.740;7.606;2022-07-29T05:22:59;12.50;;;4.67;;
7501;SDS011;3792;47.740;7.606;2022-07-29T05:25:28;7.17;;;4.00;;
7501;SDS011;3792;47.740;7.606;2022-07-29T05:27:55;4.97;;;4.00;;
7501;SDS011;3792;47.740;7.606;2022-07-29T05:30:23;9.17;;;4.33;;
7501;SDS011;3792;47.740;7.606;2022-07-29T05:32:50;4.87;;;4.47;;
7501;SDS011;3792;47.740;7.606;2022-07-29T05:35:19;4.57;;;4.17;;
7501;SDS011;3792;47.740;7.606;2022-07-29T05:37:46;5.20;;;4.17;;
7501;SDS011;3792;47.740;7.606;2022-07-29T05:40:13;6.17;;;3.93;;
7501;SDS011;3792;47.740;7.606;2022-07-29T05:42:40;5.33;;;4.47;;
7501;SDS011;3792;47.740;7.606;2022-07-29T05:45:07;4.83;;;4.33;;
7501;SDS011;3792;47.740;7.606;2022-07-29T05:47:35;6.17;;;4.30;;
7501;SDS011;3792;47.740;7.606;2022-07-29T05:50:02;5.00;;;4.07;;
7501;SDS011;3792;47.740;7.606;2022-07-29T05:52:32;4.57;;;4.17;;
7501;SDS011;3792;47.740;7.606;2022-07-29T05:54:59;4.50;;;4.10;;
7501;SDS011;3792;47.740;7.606;2022-07-29T05:57:29;4.67;;;4.37;;
7501;SDS011;3792;47.740;7.606;2022-07-29T05:59:56;6.20;;;4.50;;
7501;SDS011;3792;47.740;7.606;2022-07-29T06:02:23;4.47;;;4.17;;
7501;SDS011;3792;47.740;7.606;2022-07-29T06:04:50;4.47;;;3.93;;
7501;SDS011;3792;47.740;7.606;2022-07-29T06:07:17;4.53;;;4.13;;
7501;SDS011;3792;47.740;7.606;2022-07-29T06:09:45;5.30;;;4.13;;
7501;SDS011;3792;47.740;7.606;2022-07-29T06:12:13;5.80;;;4.17;;
7501;SDS011;3792;47.740;7.606;2022-07-29T06:14:40;5.07;;;4.67;;
7501;SDS011;3792;47.740;7.606;2022-07-29T06:17:07;5.07;;;4.67;;
7501;SDS011;3792;47.740;7.606;2022-07-29T06:19:36;4.67;;;4.33;;
7501;SDS011;3792;47.740;7.606;2022-07-29T06:22:03;5.07;;;4.67;;
7501;SDS011;3792;47.740;7.606;2022-07-29T06:24:31;5.97;;;4.90;;
7501;SDS011;3792;47.740;7.606;2022-07-29T06:26:59;4.67;;;4.27;;
7501;SDS011;3792;47.740;7.606;2022-07-29T06:29:26;4.67;;;4.27;;
7501;SDS011;3792;47.740;7.606;2022-07-29T06:31:53;5.67;;;4.80;;
7501;SDS011;3792;47.740;7.606;2022-07-29T06:34:21;6.10;;;4.53;;
7501;SDS011;3792;47.740;7.606;2022-07-29T06:36:48;5.23;;;4.83;;
7501;SDS011;3792;47.740;7.606;2022-07-29T06:39:17;4.37;;;3.90;;
7501;SDS011;3792;47.740;7.606;2022-07-29T06:41:46;4.47;;;4.17;;
7501;SDS011;3792;47.740;7.606;2022-07-29T06:44:15;4.87;;;4.47;;
7501;SDS011;3792;47.740;7.606;2022-07-29T06:46:42;6.47;;;4.40;;
7501;SDS011;3792;47.740;7.606;2022-07-29T06:49:12;4.83;;;4.43;;
7501;SDS011;3792;47.740;7.606;2022-07-29T06:51:39;5.30;;;4.63;;
7501;SDS011;3792;47.740;7.606;2022-07-29T06:54:06;4.33;;;4.03;;
7501;SDS011;3792;47.740;7.606;2022-07-29T06:56:34;5.60;;;5.00;;
7501;SDS011;3792;47.740;7.606;2022-07-29T06:59:02;5.13;;;3.90;;
7501;SDS011;3792;47.740;7.606;2022-07-29T07:01:31;4.83;;;4.43;;
7501;SDS011;3792;47.740;7.606;2022-07-29T07:03:58;4.30;;;3.90;;
7501;SDS011;3792;47.740;7.606;2022-07-29T07:06:25;5.43;;;4.80;;
7501;SDS011;3792;47.740;7.606;2022-07-29T07:08:53;4.67;;;4.27;;
7501;SDS011;3792;47.740;7.606;2022-07-29T07:11:21;6.43;;;4.37;;
7501;SDS011;3792;47.740;7.606;2022-07-29T07:13:48;5.10;;;4.50;;
7501;SDS011;3792;47.740;7.606;2022-07-29T07:16:15;4.67;;;4.27;;
7501;SDS011;3792;47.740;7.606;2022-07-29T07:18:44;7.80;;;4.40;;
7501;SDS011;3792;47.740;7.606;2022-07-29T07:21:11;3.83;;;3.53;;
7501;SDS011;3792;47.740;7.606;2022-07-29T07:23:40;4.97;;;4.27;;
7501;SDS011;3792;47.740;7.606;2022-07-29T07:26:07;4.77;;;4.30;;
7501;SDS011;3792;47.740;7.606;2022-07-29T07:28:35;5.63;;;4.30;;
7501;SDS011;3792;47.740;7.606;2022-07-29T07:31:02;5.17;;;4.77;;
7501;SDS011;3792;47.740;7.606;2022-07-29T07:33:29;7.03;;;4.77;;
7501;SDS011;3792;47.740;7.606;2022-07-29T07:35:58;5.77;;;4.00;;
7501;SDS011;3792;47.740;7.606;2022-07-29T07:38:25;5.67;;;4.60;;
7501;SDS011;3792;47.740;7.606;2022-07-29T07:40:52;10.07;;;4.87;;
7501;SDS011;3792;47.740;7.606;2022-07-29T07:43:19;5.47;;;4.20;;
7501;SDS011;3792;47.740;7.606;2022-07-29T07:45:46;7.47;;;3.77;;
7501;SDS011;3792;47.740;7.606;2022-07-29T07:48:13;9.23;;;4.27;;
7501;SDS011;3792;47.740;7.606;2022-07-29T07:50:41;6.33;;;4.10;;
7501;SDS011;3792;47.740;7.606;2022-07-29T07:53:10;6.70;;;3.80;;
7501;SDS011;3792;47.740;7.606;2022-07-29T07:55:39;6.80;;;4.10;;
7501;SDS011;3792;47.740;7.606;2022-07-29T07:58:06;6.03;;;3.87;;
7501;SDS011;3792;47.740;7.606;2022-07-29T08:00:34;6.03;;;3.83;;
7501;SDS011;3792;47.740;7.606;2022-07-29T08:03:01;5.17;;;4.23;;
7501;SDS011;3792;47.740;7.606;2022-07-29T08:05:28;8.40;;;3.93;;
7501;SDS011;3792;47.740;7.606;2022-07-29T08:07:55;5.70;;;3.67;;
7501;SDS011;3792;47.740;7.606;2022-07-29T08:10:24;4.00;;;3.70;;
7501;SDS011;3792;47.740;7.606;2022-07-29T08:13:09;9.97;;;4.03;;
7501;SDS011;3792;47.740;7.606;2022-07-29T08:15:38;6.30;;;4.20;;
7501;SDS011;3792;47.740;7.606;2022-07-29T08:18:06;7.30;;;4.30;;
7501;SDS011;3792;47.740;7.606;2022-07-29T08:20:33;9.57;;;3.90;;
7501;SDS011;3792;47.740;7.606;2022-07-29T08:23:01;6.70;;;4.17;;
7501;SDS011;3792;47.740;7.606;2022-07-29T08:25:30;7.33;;;4.63;;
7501;SDS011;3792;47.740;7.606;2022-07-29T08:28:00;5.10;;;4.20;;
7501;SDS011;3792;47.740;7.606;2022-07-29T08:30:36;7.50;;;4.30;;
7501;SDS011;3792;47.740;7.606;2022-07-29T08:33:12;10.13;;;4.10;;
7501;SDS011;3792;47.740;7.606;2022-07-29T08:35:46;6.23;;;4.37;;
7501;SDS011;3792;47.740;7.606;2022-07-29T08:38:20;4.57;;;3.60;;
7501;SDS011;3792;47.740;7.606;2022-07-29T08:40:49;6.87;;;4.47;;
7501;SDS011;3792;47.740;7.606;2022-07-29T08:43:16;7.97;;;4.33;;
7501;SDS011;3792;47.740;7.606;2022-07-29T08:45:44;6.07;;;3.43;;
7501;SDS011;3792;47.740;7.606;2022-07-29T08:48:12;5.97;;;3.27;;
7501;SDS011;3792;47.740;7.606;2022-07-29T08:50:40;3.70;;;3.40;;
7501;SDS011;3792;47.740;7.606;2022-07-29T08:53:10;4.07;;;3.37;;
7501;SDS011;3792;47.740;7.606;2022-07-29T08:55:39;4.47;;;3.77;;
7501;SDS011;3792;47.740;7.606;2022-07-29T08:58:09;3.73;;;3.10;;
7501;SDS011;3792;47.740;7.606;2022-07-29T09:00:37;8.27;;;3.23;;
7501;SDS011;3792;47.740;7.606;2022-07-29T09:03:08;4.47;;;3.30;;
7501;SDS011;3792;47.740;7.606;2022-07-29T09:05:40;4.70;;;2.90;;
7501;SDS011;3792;47.740;7.606;2022-07-29T09:08:08;3.70;;;3.33;;
7501;SDS011;3792;47.740;7.606;2022-07-29T09:10:36;3.67;;;3.27;;
7501;SDS011;3792;47.740;7.606;2022-07-29T09:13:03;4.67;;;3.40;;
7501;SDS011;3792;47.740;7.606;2022-07-29T09:15:31;3.53;;;3.20;;
7501;SDS011;3792;47.740;7.606;2022-07-29T09:17:59;3.00;;;2.80;;
7501;SDS011;3792;47.740;7.606;2022-07-29T09:20:27;4.73;;;3.20;;
7501;SDS011;3792;47.740;7.606;2022-07-29T09:23:15;5.30;;;3.00;;
7501;SDS011;3792;47.740;7.606;2022-07-29T09:25:44;3.90;;;3.40;;
7501;SDS011;3792;47.740;7.606;2022-07-29T09:28:13;6.73;;;3.17;;
7501;SDS011;3792;47.740;7.606;2022-07-29T09:30:51;5.47;;;3.20;;
7501;SDS011;3792;47.740;7.606;2022-07-29T09:33:18;7.33;;;3.43;;
7501;SDS011;3792;47.740;7.606;2022-07-29T09:35:58;6.07;;;3.30;;
7501;SDS011;3792;47.740;7.606;2022-07-29T09:38:27;3.57;;;3.27;;
7501;SDS011;3792;47.740;7.606;2022-07-29T09:40:57;4.83;;;3.67;;
7501;SDS011;3792;47.740;7.606;2022-07-29T09:43:27;6.37;;;3.57;;
7501;SDS011;3792;47.740;7.606;2022-07-29T09:45:59;3.67;;;3.37;;
7501;SDS011;3792;47.740;7.606;2022-07-29T09:48:37;4.20;;;3.73;;
7501;SDS011;3792;47.740;7.606;2022-07-29T09:51:04;4.00;;;3.67;;
7501;SDS011;3792;47.740;7.606;2022-07-29T09:53:33;5.77;;;3.17;;
7501;SDS011;3792;47.740;7.606;2022-07-29T09:56:02;3.87;;;3.53;;
7501;SDS011;3792;47.740;7.606;2022-07-29T09:58:32;5.07;;;3.67;;
7501;SDS011;3792;47.740;7.606;2022-07-29T10:01:01;4.13;;;3.70;;
7501;SDS011;3792;47.740;7.606;2022-07-29T10:03:29;5.47;;;3.80;;
7501;SDS011;3792;47.740;7.606;2022-07-29T10:08:31;8.03;;;4.33;;
7501;SDS011;3792;47.740;7.606;2022-07-29T10:11:08;8.17;;;4.53;;
7501;SDS011;3792;47.740;7.606;2022-07-29T10:13:37;6.00;;;4.30;;
7501;SDS011;3792;47.740;7.606;2022-07-29T10:16:06;7.30;;;4.17;;
7501;SDS011;3792;47.740;7.606;2022-07-29T10:18:34;4.30;;;3.90;;
7501;SDS011;3792;47.740;7.606;2022-07-29T10:21:03;4.77;;;4.13;;
7501;SDS011;3792;47.740;7.606;2022-07-29T10:23:31;5.13;;;3.73;;
7501;SDS011;3792;47.740;7.606;2022-07-29T10:25:59;5.53;;;3.93;;
7501;SDS011;3792;47.740;7.606;2022-07-29T10:28:26;6.70;;;3.90;;
7501;SDS011;3792;47.740;7.606;2022-07-29T10:30:58;5.40;;;3.70;;
7501;SDS011;3792;47.740;7.606;2022-07-29T10:33:36;4.37;;;3.90;;
7501;SDS011;3792;47.740;7.606;2022-07-29T10:36:24;4.17;;;3.40;;
7501;SDS011;3792;47.740;7.606;2022-07-29T10:39:04;5.97;;;4.03;;
7501;SDS011;3792;47.740;7.606;2022-07-29T10:41:46;7.67;;;4.20;;
7501;SDS011;3792;47.740;7.606;2022-07-29T10:44:23;4.97;;;3.70;;
7501;SDS011;3792;47.740;7.606;2022-07-29T10:46:52;3.93;;;3.60;;
7501;SDS011;3792;47.740;7.606;2022-07-29T10:49:23;4.27;;;3.83;;
7501;SDS011;3792;47.740;7.606;2022-07-29T10:51:53;3.00;;;2.80;;
7501;SDS011;3792;47.740;7.606;2022-07-29T10:54:38;5.87;;;3.37;;
7501;SDS011;3792;47.740;7.606;2022-07-29T10:57:10;4.90;;;3.30;;
7501;SDS011;3792;47.740;7.606;2022-07-29T10:59:46;4.43;;;3.10;;
7501;SDS011;3792;47.740;7.606;2022-07-29T11:05:11;3.60;;;3.20;;
7501;SDS011;3792;47.740;7.606;2022-07-29T11:10:49;4.20;;;3.10;;
7501;SDS011;3792;47.740;7.606;2022-07-29T11:16:20;5.03;;;3.10;;
7501;SDS011;3792;47.740;7.606;2022-07-29T11:21:48;3.67;;;2.90;;
7501;SDS011;3792;47.740;7.606;2022-07-29T11:24:17;6.63;;;3.30;;
7501;SDS011;3792;47.740;7.606;2022-07-29T11:29:38;5.00;;;3.10;;
7501;SDS011;3792;47.740;7.606;2022-07-29T11:32:14;3.23;;;2.93;;
7501;SDS011;3792;47.740;7.606;2022-07-29T11:34:44;5.57;;;3.30;;
7501;SDS011;3792;47.740;7.606;2022-07-29T11:37:23;3.53;;;2.80;;
7501;SDS011;3792;47.740;7.606;2022-07-29T11:40:14;5.80;;;2.77;;
7501;SDS011;3792;47.740;7.606;2022-07-29T11:42:48;5.03;;;2.90;;
7501;SDS011;3792;47.740;7.606;2022-07-29T11:45:23;4.40;;;3.27;;
7501;SDS011;3792;47.740;7.606;2022-07-29T11:47:57;5.87;;;2.97;;
7501;SDS011;3792;47.740;7.606;2022-07-29T11:50:31;5.60;;;2.63;;
7501;SDS011;3792;47.740;7.606;2022-07-29T11:53:02;6.40;;;2.80;;
7501;SDS011;3792;47.740;7.606;2022-07-29T11:55:38;3.10;;;2.90;;
7501;SDS011;3792;47.740;7.606;2022-07-29T11:58:06;6.17;;;3.00;;
7501;SDS011;3792;47.740;7.606;2022-07-29T12:00:38;6.13;;;3.00;;
7501;SDS011;3792;47.740;7.606;2022-07-29T12:03:07;5.87;;;2.50;;
7501;SDS011;3792;47.740;7.606;2022-07-29T12:05:37;3.90;;;2.77;;
7501;SDS011;3792;47.740;7.606;2022-07-29T12:08:10;5.87;;;2.67;;
7501;SDS011;3792;47.740;7.606;2022-07-29T12:10:40;3.97;;;2.40;;
7501;SDS011;3792;47.740;7.606;2022-07-29T12:13:11;3.60;;;2.97;;
7501;SDS011;3792;47.740;7.606;2022-07-29T12:15:42;3.37;;;2.80;;
7501;SDS011;3792;47.740;7.606;2022-07-29T12:18:19;2.73;;;2.53;;
7501;SDS011;3792;47.740;7.606;2022-07-29T12:20:48;4.60;;;2.50;;
7501;SDS011;3792;47.740;7.606;2022-07-29T12:23:24;4.27;;;2.30;;
7501;SDS011;3792;47.740;7.606;2022-07-29T12:25:51;4.60;;;2.37;;
7501;SDS011;3792;47.740;7.606;2022-07-29T12:28:18;7.70;;;2.70;;
7501;SDS011;3792;47.740;7.606;2022-07-29T12:30:47;3.73;;;2.57;;
7501;SDS011;3792;47.740;7.606;2022-07-29T12:33:17;4.77;;;2.73;;
7501;SDS011;3792;47.740;7.606;2022-07-29T12:35:47;3.77;;;2.67;;
7501;SDS011;3792;47.740;7.606;2022-07-29T12:38:16;4.17;;;2.77;;
7501;SDS011;3792;47.740;7.606;2022-07-29T12:40:45;2.80;;;2.60;;
7501;SDS011;3792;47.740;7.606;2022-07-29T12:43:14;3.50;;;2.50;;
7501;SDS011;3792;47.740;7.606;2022-07-29T12:45:43;5.13;;;2.10;;
7501;SDS011;3792;47.740;7.606;2022-07-29T12:48:13;4.50;;;2.50;;
7501;SDS011;3792;47.740;7.606;2022-07-29T12:50:55;7.00;;;2.63;;
7501;SDS011;3792;47.740;7.606;2022-07-29T12:53:24;3.23;;;2.53;;
7501;SDS011;3792;47.740;7.606;2022-07-29T12:55:54;5.37;;;3.03;;
7501;SDS011;3792;47.740;7.606;2022-07-29T12:58:28;5.53;;;3.70;;
7501;SDS011;3792;47.740;7.606;2022-07-29T13:01:01;2.77;;;2.50;;
7501;SDS011;3792;47.740;7.606;2022-07-29T13:03:41;4.63;;;2.53;;
7501;SDS011;3792;47.740;7.606;2022-07-29T13:06:33;6.57;;;2.83;;
7501;SDS011;3792;47.740;7.606;2022-07-29T13:09:08;5.50;;;2.57;;
7501;SDS011;3792;47.740;7.606;2022-07-29T13:11:41;5.53;;;2.43;;
7501;SDS011;3792;47.740;7.606;2022-07-29T13:14:10;4.20;;;2.43;;
7501;SDS011;3792;47.740;7.606;2022-07-29T13:19:34;3.63;;;2.13;;
7501;SDS011;3792;47.740;7.606;2022-07-29T13:22:05;3.47;;;2.17;;
7501;SDS011;3792;47.740;7.606;2022-07-29T13:24:33;3.87;;;2.27;;
7501;SDS011;3792;47.740;7.606;2022-07-29T13:27:02;4.17;;;2.50;;
7501;SDS011;3792;47.740;7.606;2022-07-29T13:29:29;2.53;;;1.90;;
7501;SDS011;3792;47.740;7.606;2022-07-29T13:31:56;2.90;;;2.27;;
7501;SDS011;3792;47.740;7.606;2022-07-29T13:34:23;2.43;;;2.20;;
7501;SDS011;3792;47.740;7.606;2022-07-29T13:36:50;5.37;;;2.10;;
7501;SDS011;3792;47.740;7.606;2022-07-29T13:39:18;3.33;;;2.03;;
7501;SDS011;3792;47.740;7.606;2022-07-29T13:41:45;6.00;;;2.20;;
7501;SDS011;3792;47.740;7.606;2022-07-29T13:44:13;4.93;;;2.10;;
7501;SDS011;3792;47.740;7.606;2022-07-29T13:46:40;6.17;;;2.03;;
7501;SDS011;3792;47.740;7.606;2022-07-29T13:49:07;3.97;;;2.20;;
7501;SDS011;3792;47.740;7.606;2022-07-29T13:51:36;2.87;;;1.83;;
7501;SDS011;3792;47.740;7.606;2022-07-29T13:54:03;4.20;;;1.93;;
7501;SDS011;3792;47.740;7.606;2022-07-29T13:56:30;2.73;;;2.00;;
7501;SDS011;3792;47.740;7.606;2022-07-29T13:58:57;2.90;;;2.00;;
7501;SDS011;3792;47.740;7.606;2022-07-29T14:01:26;2.37;;;1.73;;
7501;SDS011;3792;47.740;7.606;2022-07-29T14:03:55;4.47;;;1.80;;
7501;SDS011;3792;47.740;7.606;2022-07-29T14:06:22;4.30;;;2.43;;
7501;SDS011;3792;47.740;7.606;2022-07-29T14:08:49;2.43;;;1.90;;
7501;SDS011;3792;47.740;7.606;2022-07-29T14:11:17;4.00;;;1.90;;
7501;SDS011;3792;47.740;7.606;2022-07-29T14:13:44;2.90;;;2.07;;
7501;SDS011;3792;47.740;7.606;2022-07-29T14:16:11;4.63;;;2.30;;
7501;SDS011;3792;47.740;7.606;2022-07-29T14:18:40;2.40;;;1.77;;
7501;SDS011;3792;47.740;7.606;2022-07-29T14:21:07;2.90;;;2.00;;
7501;SDS011;3792;47.740;7.606;2022-07-29T14:23:34;2.23;;;1.97;;
7501;SDS011;3792;47.740;7.606;2022-07-29T14:26:02;4.23;;;2.17;;
7501;SDS011;3792;47.740;7.606;2022-07-29T14:28:29;2.37;;;1.73;;
7501;SDS011;3792;47.740;7.606;2022-07-29T14:30:56;3.50;;;2.27;;
7501;SDS011;3792;47.740;7.606;2022-07-29T14:33:23;5.40;;;1.93;;
7501;SDS011;3792;47.740;7.606;2022-07-29T14:35:52;4.60;;;2.13;;
7501;SDS011;3792;47.740;7.606;2022-07-29T14:38:19;2.13;;;1.80;;
7501;SDS011;3792;47.740;7.606;2022-07-29T14:40:46;3.83;;;1.80;;
7501;SDS011;3792;47.740;7.606;2022-07-29T14:43:13;3.00;;;2.07;;
7501;SDS011;3792;47.740;7.606;2022-07-29T14:45:40;1.63;;;1.53;;
7501;SDS011;3792;47.740;7.606;2022-07-29T14:48:07;1.50;;;1.40;;
7501;SDS011;3792;47.740;7.606;2022-07-29T14:50:36;2.30;;;1.93;;
7501;SDS011;3792;47.740;7.606;2022-07-29T14:53:04;4.03;;;1.70;;
7501;SDS011;3792;47.740;7.606;2022-07-29T14:55:32;6.37;;;1.70;;
7501;SDS011;3792;47.740;7.606;2022-07-29T14:57:59;3.83;;;1.90;;
7501;SDS011;3792;47.740;7.606;2022-07-29T15:00:26;2.30;;;1.60;;
7501;SDS011;3792;47.740;7.606;2022-07-29T15:02:57;1.83;;;1.67;;
7501;SDS011;3792;47.740;7.606;2022-07-29T15:05:24;2.30;;;1.93;;
7501;SDS011;3792;47.740;7.606;2022-07-29T15:07:51;4.63;;;1.80;;
7501;SDS011;3792;47.740;7.606;2022-07-29T15:10:20;3.47;;;1.60;;
7501;SDS011;3792;47.740;7.606;2022-07-29T15:12:47;7.50;;;2.60;;
7501;SDS011;3792;47.740;7.606;2022-07-29T15:15:14;5.97;;;1.60;;
7501;SDS011;3792;47.740;7.606;2022-07-29T15:17:41;5.23;;;1.90;;
7501;SDS011;3792;47.740;7.606;2022-07-29T15:20:08;2.30;;;1.50;;
7501;SDS011;3792;47.740;7.606;2022-07-29T15:22:36;2.33;;;1.40;;
7501;SDS011;3792;47.740;7.606;2022-07-29T15:25:05;2.03;;;1.83;;
7501;SDS011;3792;47.740;7.606;2022-07-29T15:27:34;2.67;;;1.40;;
7501;SDS011;3792;47.740;7.606;2022-07-29T15:30:02;2.30;;;1.47;;
7501;SDS011;3792;47.740;7.606;2022-07-29T15:32:29;3.63;;;1.80;;
7501;SDS011;3792;47.740;7.606;2022-07-29T15:34:56;1.70;;;1.60;;
7501;SDS011;3792;47.740;7.606;2022-07-29T15:37:23;5.20;;;1.60;;
7501;SDS011;3792;47.740;7.606;2022-07-29T15:39:50;3.07;;;1.90;;
7501;SDS011;3792;47.740;7.606;2022-07-29T15:42:17;1.97;;;1.77;;
7501;SDS011;3792;47.740;7.606;2022-07-29T15:44:46;5.93;;;1.87;;
7501;SDS011;3792;47.740;7.606;2022-07-29T15:47:13;1.50;;;1.23;;
7501;SDS011;3792;47.740;7.606;2022-07-29T15:49:40;8.00;;;1.90;;